sensor_id;sensor_type;location;lat;lon;timestamp;pressure;altitude;pressure_sealevel;temperature;humidity
57668;BME280;43499;52.366;12.912;2022-07-22T00:00:16;101392.00;;;20.00;79.37
57668;BME280;43499;52.366;12.912;2022-07-22T00:01:18;101394.66;;;20.00;79.52
57668;BME280;43499;52.366;12.912;2022-07-22T00:02:20;101392.66;;;19.96;79.92
57668;BME280;43499;52.366;12.912;2022-07-22T00:03:24;101385.13;;;20.05;79.56
57668;BME280;43499;52.366;12.912;2022-07-22T00:04:24;101386.97;;;20.06;79.30
57668;BME280;43499;52.366;12.912;2022-07-22T00:05:27;101390.69;;;20.10;79.22
57668;BME280;43499;52.366;12.912;2022-07-22T00:06:28;101383.47;;;20.07;79.22
57668;BME280;43499;52.366;12.912;2022-07-22T00:07:31;101385.28;;;19.92;79.56
57668;BME280;43499;52.366;12.912;2022-07-22T00:08:32;101382.22;;;19.84;79.93
57668;BME280;43499;52.366;12.912;2022-07-22T00:09:34;101390.28;;;20.02;79.82
57668;BME280;43499;52.366;12.912;2022-07-22T00:10:35;101392.41;;;19.91;79.92
57668;BME280;43499;52.366;12.912;2022-07-22T00:11:37;101391.31;;;19.87;79.75
57668;BME280;43499;52.366;12.912;2022-07-22T00:12:38;101389.03;;;19.79;80.56
57668;BME280;43499;52.366;12.912;2022-07-22T00:13:41;101393.16;;;19.88;79.92
57668;BME280;43499;52.366;12.912;2022-07-22T00:14:42;101388.13;;;19.95;79.64
57668;BME280;43499;52.366;12.912;2022-07-22T00:15:44;101390.38;;;19.87;79.91
57668;BME280;43499;52.366;12.912;2022-07-22T00:16:45;101391.53;;;19.76;80.22
57668;BME280;43499;52.366;12.912;2022-07-22T00:17:47;101397.88;;;19.78;80.49
57668;BME280;43499;52.366;12.912;2022-07-22T00:18:50;101400.34;;;19.90;80.26
57668;BME280;43499;52.366;12.912;2022-07-22T00:19:52;101394.91;;;19.88;79.73
57668;BME280;43499;52.366;12.912;2022-07-22T00:20:53;101399.63;;;19.77;80.54
57668;BME280;43499;52.366;12.912;2022-07-22T00:21:54;101390.97;;;19.65;80.90
57668;BME280;43499;52.366;12.912;2022-07-22T00:22:55;101402.09;;;19.57;80.79
57668;BME280;43499;52.366;12.912;2022-07-22T00:23:57;101406.78;;;19.62;80.93
57668;BME280;43499;52.366;12.912;2022-07-22T00:24:58;101399.09;;;19.68;80.80
57668;BME280;43499;52.366;12.912;2022-07-22T00:26:00;101403.63;;;19.52;81.48
57668;BME280;43499;52.366;12.912;2022-07-22T00:27:01;101407.53;;;19.59;80.89
57668;BME280;43499;52.366;12.912;2022-07-22T00:28:03;101403.78;;;19.55;80.99
57668;BME280;43499;52.366;12.912;2022-07-22T00:29:04;101407.88;;;19.49;81.36
57668;BME280;43499;52.366;12.912;2022-07-22T00:30:07;101402.75;;;19.37;81.78
57668;BME280;43499;52.366;12.912;2022-07-22T00:31:08;101401.41;;;19.45;81.43
57668;BME280;43499;52.366;12.912;2022-07-22T00:32:11;101401.78;;;19.51;80.68
57668;BME280;43499;52.366;12.912;2022-07-22T00:33:12;101392.78;;;19.49;80.97
57668;BME280;43499;52.366;12.912;2022-07-22T00:34:15;101394.84;;;19.55;80.69
57668;BME280;43499;52.366;12.912;2022-07-22T00:35:17;101401.78;;;19.51;81.06
57668;BME280;43499;52.366;12.912;2022-07-22T00:36:18;101401.16;;;19.40;81.35
57668;BME280;43499;52.366;12.912;2022-07-22T00:37:20;101407.19;;;19.21;82.20
57668;BME280;43499;52.366;12.912;2022-07-22T00:38:21;101402.63;;;19.19;82.17
57668;BME280;43499;52.366;12.912;2022-07-22T00:39:23;101404.63;;;19.23;82.40
57668;BME280;43499;52.366;12.912;2022-07-22T00:40:24;101405.91;;;19.30;82.14
57668;BME280;43499;52.366;12.912;2022-07-22T00:41:26;101399.75;;;19.31;81.96
57668;BME280;43499;52.366;12.912;2022-07-22T00:42:28;101407.25;;;19.38;81.90
57668;BME280;43499;52.366;12.912;2022-07-22T00:43:48;101405.91;;;19.46;81.54
57668;BME280;43499;52.366;12.912;2022-07-22T00:44:49;101403.69;;;19.37;81.39
57668;BME280;43499;52.366;12.912;2022-07-22T00:45:51;101408.75;;;19.49;81.06
57668;BME280;43499;52.366;12.912;2022-07-22T00:46:52;101405.34;;;19.35;81.69
57668;BME280;43499;52.366;12.912;2022-07-22T00:47:54;101421.34;;;19.35;81.48
57668;BME280;43499;52.366;12.912;2022-07-22T00:48:55;101408.91;;;19.36;81.53
57668;BME280;43499;52.366;12.912;2022-07-22T00:49:58;101406.75;;;19.29;81.78
57668;BME280;43499;52.366;12.912;2022-07-22T00:50:59;101406.06;;;19.33;81.50
57668;BME280;43499;52.366;12.912;2022-07-22T00:52:02;101411.56;;;19.36;81.65
57668;BME280;43499;52.366;12.912;2022-07-22T00:53:03;101407.03;;;19.18;82.48
57668;BME280;43499;52.366;12.912;2022-07-22T00:54:06;101416.56;;;18.98;83.61
57668;BME280;43499;52.366;12.912;2022-07-22T00:55:08;101406.34;;;19.06;83.40
57668;BME280;43499;52.366;12.912;2022-07-22T00:56:10;101411.00;;;19.10;82.92
57668;BME280;43499;52.366;12.912;2022-07-22T00:57:11;101411.19;;;19.13;82.97
57668;BME280;43499;52.366;12.912;2022-07-22T00:58:13;101410.53;;;19.17;82.85
57668;BME280;43499;52.366;12.912;2022-07-22T00:59:15;101408.63;;;19.15;83.07
57668;BME280;43499;52.366;12.912;2022-07-22T01:00:20;101419.22;;;19.30;82.14
57668;BME280;43499;52.366;12.912;2022-07-22T01:01:22;101414.28;;;19.21;82.58
57668;BME280;43499;52.366;12.912;2022-07-22T01:02:24;101414.59;;;19.10;83.50
57668;BME280;43499;52.366;12.912;2022-07-22T01:03:25;101414.09;;;19.18;83.21
57668;BME280;43499;52.366;12.912;2022-07-22T01:04:27;101405.97;;;19.31;82.58
57668;BME280;43499;52.366;12.912;2022-07-22T01:05:29;101416.66;;;19.31;82.25
57668;BME280;43499;52.366;12.912;2022-07-22T01:06:31;101415.56;;;19.27;82.38
57668;BME280;43499;52.366;12.912;2022-07-22T01:07:33;101414.06;;;19.33;82.25
57668;BME280;43499;52.366;12.912;2022-07-22T01:08:35;101417.66;;;19.33;82.28
57668;BME280;43499;52.366;12.912;2022-07-22T01:09:36;101416.38;;;19.26;81.95
57668;BME280;43499;52.366;12.912;2022-07-22T01:10:38;101416.56;;;19.30;82.29
57668;BME280;43499;52.366;12.912;2022-07-22T01:11:41;101411.00;;;19.41;81.62
57668;BME280;43499;52.366;12.912;2022-07-22T01:12:43;101410.53;;;19.49;81.47
57668;BME280;43499;52.366;12.912;2022-07-22T01:13:45;101411.94;;;19.42;81.38
57668;BME280;43499;52.366;12.912;2022-07-22T01:14:47;101409.28;;;19.27;82.37
57668;BME280;43499;52.366;12.912;2022-07-22T01:15:48;101413.78;;;19.28;82.16
57668;BME280;43499;52.366;12.912;2022-07-22T01:16:50;101406.34;;;19.37;82.13
57668;BME280;43499;52.366;12.912;2022-07-22T01:17:51;101415.31;;;19.39;81.84
57668;BME280;43499;52.366;12.912;2022-07-22T01:18:53;101414.41;;;19.39;81.98
57668;BME280;43499;52.366;12.912;2022-07-22T01:19:59;101414.06;;;19.33;82.14
57668;BME280;43499;52.366;12.912;2022-07-22T01:21:02;101408.31;;;19.25;82.29
57668;BME280;43499;52.366;12.912;2022-07-22T01:22:04;101411.63;;;19.21;82.67
57668;BME280;43499;52.366;12.912;2022-07-22T01:23:06;101416.13;;;19.22;82.75
57668;BME280;43499;52.366;12.912;2022-07-22T01:24:07;101420.81;;;19.26;82.80
57668;BME280;43499;52.366;12.912;2022-07-22T01:25:09;101413.28;;;19.19;82.60
57668;BME280;43499;52.366;12.912;2022-07-22T01:26:10;101401.22;;;19.25;82.58
57668;BME280;43499;52.366;12.912;2022-07-22T01:27:12;101405.22;;;19.34;82.19
57668;BME280;43499;52.366;12.912;2022-07-22T01:28:13;101404.25;;;19.32;82.23
57668;BME280;43499;52.366;12.912;2022-07-22T01:29:15;101413.53;;;19.23;82.27
57668;BME280;43499;52.366;12.912;2022-07-22T01:30:16;101403.38;;;19.16;82.18
57668;BME280;43499;52.366;12.912;2022-07-22T01:31:20;101406.28;;;19.21;82.31
57668;BME280;43499;52.366;12.912;2022-07-22T01:32:21;101411.25;;;19.30;82.05
57668;BME280;43499;52.366;12.912;2022-07-22T01:33:24;101412.41;;;19.35;82.00
57668;BME280;43499;52.366;12.912;2022-07-22T01:34:25;101401.84;;;19.36;81.76
57668;BME280;43499;52.366;12.912;2022-07-22T01:35:28;101403.44;;;19.18;82.55
57668;BME280;43499;52.366;12.912;2022-07-22T01:36:29;101409.19;;;19.09;83.25
57668;BME280;43499;52.366;12.912;2022-07-22T01:37:33;101410.03;;;19.08;83.21
57668;BME280;43499;52.366;12.912;2022-07-22T01:38:34;101405.78;;;19.11;83.20
57668;BME280;43499;52.366;12.912;2022-07-22T01:39:36;101397.84;;;19.13;82.89
57668;BME280;43499;52.366;12.912;2022-07-22T01:40:38;101408.91;;;18.89;83.92
57668;BME280;43499;52.366;12.912;2022-07-22T01:41:41;101406.72;;;18.97;83.67
57668;BME280;43499;52.366;12.912;2022-07-22T01:42:43;101403.56;;;19.04;83.33
57668;BME280;43499;52.366;12.912;2022-07-22T01:43:44;101407.72;;;18.99;83.47
57668;BME280;43499;52.366;12.912;2022-07-22T01:44:46;101411.66;;;18.91;84.47
57668;BME280;43499;52.366;12.912;2022-07-22T01:45:48;101407.72;;;18.99;84.15
57668;BME280;43499;52.366;12.912;2022-07-22T01:46:51;101409.56;;;19.00;83.84
57668;BME280;43499;52.366;12.912;2022-07-22T01:47:52;101409.09;;;18.92;84.06
57668;BME280;43499;52.366;12.912;2022-07-22T01:48:54;101403.75;;;18.92;84.22
57668;BME280;43499;52.366;12.912;2022-07-22T01:49:55;101407.47;;;18.94;83.88
57668;BME280;43499;52.366;12.912;2022-07-22T01:50:58;101408.38;;;18.95;84.12
57668;BME280;43499;52.366;12.912;2022-07-22T01:51:59;101403.16;;;18.96;84.18
57668;BME280;43499;52.366;12.912;2022-07-22T01:53:01;101412.03;;;18.97;83.84
57668;BME280;43499;52.366;12.912;2022-07-22T01:54:02;101410.75;;;18.90;84.55
57668;BME280;43499;52.366;12.912;2022-07-22T01:55:05;101414.41;;;18.92;84.38
57668;BME280;43499;52.366;12.912;2022-07-22T01:56:06;101410.47;;;18.86;84.27
57668;BME280;43499;52.366;12.912;2022-07-22T01:57:08;101417.63;;;18.87;84.45
57668;BME280;43499;52.366;12.912;2022-07-22T01:58:09;101417.56;;;18.70;85.15
57668;BME280;43499;52.366;12.912;2022-07-22T01:59:11;101410.13;;;18.79;84.95
57668;BME280;43499;52.366;12.912;2022-07-22T02:00:14;101412.13;;;18.84;84.92
57668;BME280;43499;52.366;12.912;2022-07-22T02:01:16;101406.19;;;18.73;85.28
57668;BME280;43499;52.366;12.912;2022-07-22T02:02:17;101404.06;;;18.67;85.30
57668;BME280;43499;52.366;12.912;2022-07-22T02:03:19;101400.75;;;18.71;85.10
57668;BME280;43499;52.366;12.912;2022-07-22T02:04:20;101410.00;;;18.78;84.85
57668;BME280;43499;52.366;12.912;2022-07-22T02:05:22;101412.34;;;18.72;84.97
57668;BME280;43499;52.366;12.912;2022-07-22T02:06:25;101408.94;;;18.74;85.15
57668;BME280;43499;52.366;12.912;2022-07-22T02:07:27;101403.78;;;18.77;84.88
57668;BME280;43499;52.366;12.912;2022-07-22T02:08:28;101402.78;;;18.75;84.97
57668;BME280;43499;52.366;12.912;2022-07-22T02:09:29;101406.00;;;18.70;85.28
57668;BME280;43499;52.366;12.912;2022-07-22T02:10:31;101404.97;;;18.68;85.25
57668;BME280;43499;52.366;12.912;2022-07-22T02:11:33;101400.66;;;18.70;84.95
57668;BME280;43499;52.366;12.912;2022-07-22T02:12:34;101400.41;;;18.65;84.73
57668;BME280;43499;52.366;12.912;2022-07-22T02:13:36;101413.44;;;18.60;85.43
57668;BME280;43499;52.366;12.912;2022-07-22T02:14:37;101414.19;;;18.73;85.44
57668;BME280;43499;52.366;12.912;2022-07-22T02:15:39;101404.41;;;18.73;84.91
57668;BME280;43499;52.366;12.912;2022-07-22T02:16:40;101409.66;;;18.72;84.74
57668;BME280;43499;52.366;12.912;2022-07-22T02:17:42;101412.22;;;18.70;85.28
57668;BME280;43499;52.366;12.912;2022-07-22T02:18:43;101409.03;;;18.61;85.19
57668;BME280;43499;52.366;12.912;2022-07-22T02:19:45;101408.19;;;18.77;84.82
57668;BME280;43499;52.366;12.912;2022-07-22T02:20:46;101406.06;;;18.71;85.13
57668;BME280;43499;52.366;12.912;2022-07-22T02:21:51;101408.13;;;18.60;85.22
57668;BME280;43499;52.366;12.912;2022-07-22T02:22:52;101411.59;;;18.59;85.29
57668;BME280;43499;52.366;12.912;2022-07-22T02:23:54;101407.91;;;18.72;84.98
57668;BME280;43499;52.366;12.912;2022-07-22T02:24:55;101409.75;;;18.73;84.73
57668;BME280;43499;52.366;12.912;2022-07-22T02:25:57;101418.84;;;18.62;84.36
57668;BME280;43499;52.366;12.912;2022-07-22T02:26:58;101410.88;;;18.47;85.45
57668;BME280;43499;52.366;12.912;2022-07-22T02:28:00;101413.06;;;18.54;85.45
57668;BME280;43499;52.366;12.912;2022-07-22T02:29:01;101412.88;;;18.36;85.93
57668;BME280;43499;52.366;12.912;2022-07-22T02:30:05;101419.25;;;18.10;87.60
57668;BME280;43499;52.366;12.912;2022-07-22T02:31:06;101403.88;;;18.19;87.86
57668;BME280;43499;52.366;12.912;2022-07-22T02:32:08;101408.81;;;18.13;87.88
57668;BME280;43499;52.366;12.912;2022-07-22T02:33:09;101414.78;;;18.09;88.42
57668;BME280;43499;52.366;12.912;2022-07-22T02:34:11;101417.84;;;18.30;87.43
57668;BME280;43499;52.366;12.912;2022-07-22T02:35:12;101410.03;;;18.33;86.86
57668;BME280;43499;52.366;12.912;2022-07-22T02:36:14;101412.50;;;18.30;86.99
57668;BME280;43499;52.366;12.912;2022-07-22T02:37:16;101411.22;;;18.23;87.31
57668;BME280;43499;52.366;12.912;2022-07-22T02:38:18;101415.16;;;18.15;88.17
57668;BME280;43499;52.366;12.912;2022-07-22T02:39:19;101415.31;;;18.18;87.89
57668;BME280;43499;52.366;12.912;2022-07-22T02:40:21;101407.06;;;18.13;87.90
57668;BME280;43499;52.366;12.912;2022-07-22T02:41:22;101404.78;;;18.19;87.76
57668;BME280;43499;52.366;12.912;2022-07-22T02:42:24;101398.94;;;18.25;87.42
57668;BME280;43499;52.366;12.912;2022-07-22T02:43:25;101401.78;;;18.28;87.57
57668;BME280;43499;52.366;12.912;2022-07-22T02:44:27;101414.44;;;18.32;87.30
57668;BME280;43499;52.366;12.912;2022-07-22T02:45:28;101402.34;;;18.38;87.06
57668;BME280;43499;52.366;12.912;2022-07-22T02:46:30;101417.47;;;18.39;86.81
57668;BME280;43499;52.366;12.912;2022-07-22T02:47:31;101414.81;;;18.39;86.92
57668;BME280;43499;52.366;12.912;2022-07-22T02:48:33;101403.97;;;18.35;86.60
57668;BME280;43499;52.366;12.912;2022-07-22T02:49:34;101407.94;;;18.42;86.27
57668;BME280;43499;52.366;12.912;2022-07-22T02:50:36;101410.88;;;18.32;87.26
57668;BME280;43499;52.366;12.912;2022-07-22T02:51:38;101407.47;;;18.34;86.75
57668;BME280;43499;52.366;12.912;2022-07-22T02:52:42;101408.28;;;18.33;86.63
57668;BME280;43499;52.366;12.912;2022-07-22T02:53:43;101411.06;;;18.50;86.33
57668;BME280;43499;52.366;12.912;2022-07-22T02:54:45;101410.25;;;18.51;86.03
57668;BME280;43499;52.366;12.912;2022-07-22T02:55:46;101411.63;;;18.44;85.69
57668;BME280;43499;52.366;12.912;2022-07-22T02:56:48;101417.28;;;18.35;86.13
57668;BME280;43499;52.366;12.912;2022-07-22T02:57:49;101403.97;;;18.35;86.41
57668;BME280;43499;52.366;12.912;2022-07-22T02:58:51;101413.16;;;18.41;86.59
57668;BME280;43499;52.366;12.912;2022-07-22T02:59:53;101417.56;;;18.40;86.45
57668;BME280;43499;52.366;12.912;2022-07-22T03:00:55;101413.53;;;18.47;86.08
57668;BME280;43499;52.366;12.912;2022-07-22T03:01:56;101416.38;;;18.50;85.66
57668;BME280;43499;52.366;12.912;2022-07-22T03:02:58;101411.22;;;18.53;85.62
57668;BME280;43499;52.366;12.912;2022-07-22T03:03:59;101414.09;;;18.41;85.74
57668;BME280;43499;52.366;12.912;2022-07-22T03:05:02;101418.03;;;18.33;86.32
57668;BME280;43499;52.366;12.912;2022-07-22T03:06:03;101413.88;;;18.38;86.25
57668;BME280;43499;52.366;12.912;2022-07-22T03:07:05;101418.47;;;18.41;86.09
57668;BME280;43499;52.366;12.912;2022-07-22T03:08:08;101412.59;;;18.46;85.39
57668;BME280;43499;52.366;12.912;2022-07-22T03:09:10;101414.63;;;18.35;86.15
57668;BME280;43499;52.366;12.912;2022-07-22T03:10:12;101415.25;;;18.31;85.71
57668;BME280;43499;52.366;12.912;2022-07-22T03:11:14;101413.97;;;18.25;86.20
57668;BME280;43499;52.366;12.912;2022-07-22T03:12:15;101425.81;;;18.15;86.74
57668;BME280;43499;52.366;12.912;2022-07-22T03:13:17;101422.75;;;18.24;86.27
57668;BME280;43499;52.366;12.912;2022-07-22T03:14:18;101420.22;;;18.25;85.99
57668;BME280;43499;52.366;12.912;2022-07-22T03:15:20;101422.31;;;18.16;86.16
57668;BME280;43499;52.366;12.912;2022-07-22T03:16:21;101421.13;;;18.26;86.40
57668;BME280;43499;52.366;12.912;2022-07-22T03:17:23;101404.13;;;18.24;86.06
57668;BME280;43499;52.366;12.912;2022-07-22T03:18:24;101421.50;;;18.17;86.27
57668;BME280;43499;52.366;12.912;2022-07-22T03:19:26;101412.97;;;18.23;86.08
57668;BME280;43499;52.366;12.912;2022-07-22T03:20:27;101416.34;;;18.20;86.09
57668;BME280;43499;52.366;12.912;2022-07-22T03:21:29;101413.53;;;18.17;86.05
57668;BME280;43499;52.366;12.912;2022-07-22T03:22:30;101415.97;;;18.14;86.42
57668;BME280;43499;52.366;12.912;2022-07-22T03:23:33;101411.47;;;17.98;87.21
57668;BME280;43499;52.366;12.912;2022-07-22T03:24:34;101423.69;;;18.09;86.83
57668;BME280;43499;52.366;12.912;2022-07-22T03:25:36;101422.19;;;17.99;86.91
57668;BME280;43499;52.366;12.912;2022-07-22T03:26:37;101421.56;;;18.03;87.29
57668;BME280;43499;52.366;12.912;2022-07-22T03:27:39;101426.44;;;18.11;86.65
57668;BME280;43499;52.366;12.912;2022-07-22T03:28:40;101430.94;;;18.12;86.81
57668;BME280;43499;52.366;12.912;2022-07-22T03:29:42;101425.81;;;18.15;86.70
57668;BME280;43499;52.366;12.912;2022-07-22T03:30:43;101424.16;;;18.17;86.55
57668;BME280;43499;52.366;12.912;2022-07-22T03:31:45;101428.28;;;18.12;86.36
57668;BME280;43499;52.366;12.912;2022-07-22T03:32:46;101425.53;;;18.25;86.26
57668;BME280;43499;52.366;12.912;2022-07-22T03:33:48;101427.25;;;18.25;85.71
57668;BME280;43499;52.366;12.912;2022-07-22T03:34:49;101429.59;;;18.33;85.32
57668;BME280;43499;52.366;12.912;2022-07-22T03:35:51;101420.41;;;18.28;85.58
57668;BME280;43499;52.366;12.912;2022-07-22T03:36:52;101436.47;;;18.30;85.21
57668;BME280;43499;52.366;12.912;2022-07-22T03:37:54;101425.34;;;18.22;85.93
57668;BME280;43499;52.366;12.912;2022-07-22T03:38:56;101431.09;;;18.00;87.40
57668;BME280;43499;52.366;12.912;2022-07-22T03:39:58;101431.84;;;18.12;86.56
57668;BME280;43499;52.366;12.912;2022-07-22T03:40:59;101437.81;;;18.08;86.52
57668;BME280;43499;52.366;12.912;2022-07-22T03:42:01;101422.59;;;18.06;87.00
57668;BME280;43499;52.366;12.912;2022-07-22T03:43:02;101428.00;;;18.07;86.63
57668;BME280;43499;52.366;12.912;2022-07-22T03:44:04;101432.91;;;18.01;87.32
57668;BME280;43499;52.366;12.912;2022-07-22T03:45:06;101434.75;;;18.02;87.17
57668;BME280;43499;52.366;12.912;2022-07-22T03:46:08;101430.75;;;17.95;87.28
57668;BME280;43499;52.366;12.912;2022-07-22T03:47:09;101434.97;;;17.92;87.54
57668;BME280;43499;52.366;12.912;2022-07-22T03:48:11;101428.59;;;18.03;87.45
57668;BME280;43499;52.366;12.912;2022-07-22T03:49:12;101436.53;;;18.16;86.83
57668;BME280;43499;52.366;12.912;2022-07-22T03:50:14;101435.97;;;18.07;86.87
57668;BME280;43499;52.366;12.912;2022-07-22T03:51:15;101441.31;;;17.94;87.64
57668;BME280;43499;52.366;12.912;2022-07-22T03:52:17;101446.34;;;18.17;86.76
57668;BME280;43499;52.366;12.912;2022-07-22T03:53:18;101438.44;;;18.04;86.60
57668;BME280;43499;52.366;12.912;2022-07-22T03:54:22;101440.47;;;17.95;87.90
57668;BME280;43499;52.366;12.912;2022-07-22T03:55:23;101448.53;;;17.96;87.57
57668;BME280;43499;52.366;12.912;2022-07-22T03:56:25;101434.97;;;17.92;87.84
57668;BME280;43499;52.366;12.912;2022-07-22T03:57:26;101437.13;;;17.84;88.32
57668;BME280;43499;52.366;12.912;2022-07-22T03:58:29;101436.31;;;17.85;88.43
57668;BME280;43499;52.366;12.912;2022-07-22T03:59:31;101438.97;;;17.98;87.92
57668;BME280;43499;52.366;12.912;2022-07-22T04:00:33;101435.97;;;17.94;87.76
57668;BME280;43499;52.366;12.912;2022-07-22T04:01:34;101433.25;;;17.92;88.01
57668;BME280;43499;52.366;12.912;2022-07-22T04:02:36;101436.50;;;18.01;87.99
57668;BME280;43499;52.366;12.912;2022-07-22T04:03:37;101437.28;;;18.14;87.46
57668;BME280;43499;52.366;12.912;2022-07-22T04:04:39;101434.78;;;17.88;87.88
57668;BME280;43499;52.366;12.912;2022-07-22T04:05:40;101439.63;;;17.81;89.17
57668;BME280;43499;52.366;12.912;2022-07-22T04:06:42;101434.75;;;18.02;87.93
57668;BME280;43499;52.366;12.912;2022-07-22T04:07:45;101439.66;;;18.09;87.90
57668;BME280;43499;52.366;12.912;2022-07-22T04:08:46;101432.84;;;17.86;88.69
57668;BME280;43499;52.366;12.912;2022-07-22T04:09:50;101437.66;;;17.78;88.95
57668;BME280;43499;52.366;12.912;2022-07-22T04:10:51;101441.38;;;17.95;88.62
57668;BME280;43499;52.366;12.912;2022-07-22T04:11:53;101441.53;;;17.97;88.77
57668;BME280;43499;52.366;12.912;2022-07-22T04:12:54;101436.41;;;18.00;87.94
57668;BME280;43499;52.366;12.912;2022-07-22T04:13:56;101442.56;;;17.99;88.36
57668;BME280;43499;52.366;12.912;2022-07-22T04:14:57;101439.22;;;17.74;89.65
57668;BME280;43499;52.366;12.912;2022-07-22T04:15:59;101449.28;;;17.94;89.02
57668;BME280;43499;52.366;12.912;2022-07-22T04:17:00;101440.34;;;18.07;88.28
57668;BME280;43499;52.366;12.912;2022-07-22T04:18:02;101446.31;;;18.02;88.23
57668;BME280;43499;52.366;12.912;2022-07-22T04:19:03;101441.38;;;17.95;89.18
57668;BME280;43499;52.366;12.912;2022-07-22T04:20:06;101444.41;;;18.00;88.36
57668;BME280;43499;52.366;12.912;2022-07-22T04:21:07;101441.50;;;18.10;87.92
57668;BME280;43499;52.366;12.912;2022-07-22T04:22:09;101441.66;;;18.13;88.00
57668;BME280;43499;52.366;12.912;2022-07-22T04:23:10;101439.53;;;18.08;88.41
57668;BME280;43499;52.366;12.912;2022-07-22T04:24:12;101444.59;;;18.18;87.91
57668;BME280;43499;52.366;12.912;2022-07-22T04:25:15;101437.81;;;18.23;88.14
57668;BME280;43499;52.366;12.912;2022-07-22T04:26:17;101442.69;;;18.30;87.96
57668;BME280;43499;52.366;12.912;2022-07-22T04:27:18;101439.22;;;18.46;86.76
57668;BME280;43499;52.366;12.912;2022-07-22T04:28:20;101440.50;;;18.53;86.23
57668;BME280;43499;52.366;12.912;2022-07-22T04:29:22;101439.41;;;18.49;86.17
57668;BME280;43499;52.366;12.912;2022-07-22T04:30:23;101432.72;;;18.56;85.96
57668;BME280;43499;52.366;12.912;2022-07-22T04:31:25;101438.03;;;18.56;85.62
57668;BME280;43499;52.366;12.912;2022-07-22T04:32:26;101438.69;;;18.52;85.37
57668;BME280;43499;52.366;12.912;2022-07-22T04:33:28;101439.41;;;18.49;86.40
57668;BME280;43499;52.366;12.912;2022-07-22T04:34:29;101443.16;;;18.53;86.05
57668;BME280;43499;52.366;12.912;2022-07-22T04:35:31;101436.13;;;18.39;86.93
57668;BME280;43499;52.366;12.912;2022-07-22T04:36:32;101438.84;;;18.55;86.55
57668;BME280;43499;52.366;12.912;2022-07-22T04:37:34;101440.97;;;18.61;86.13
57668;BME280;43499;52.366;12.912;2022-07-22T04:38:35;101441.50;;;18.70;85.71
57668;BME280;43499;52.366;12.912;2022-07-22T04:39:37;101442.44;;;18.71;85.68
57668;BME280;43499;52.366;12.912;2022-07-22T04:40:39;101437.47;;;18.77;85.24
57668;BME280;43499;52.366;12.912;2022-07-22T04:41:41;101441.25;;;18.80;85.46
57668;BME280;43499;52.366;12.912;2022-07-22T04:42:42;101438.69;;;18.82;85.19
57668;BME280;43499;52.366;12.912;2022-07-22T04:43:44;101440.63;;;18.70;85.87
57668;BME280;43499;52.366;12.912;2022-07-22T04:44:45;101441.72;;;18.58;86.46
57668;BME280;43499;52.366;12.912;2022-07-22T04:45:47;101434.94;;;18.78;85.34
57668;BME280;43499;52.366;12.912;2022-07-22T04:46:49;101444.63;;;18.78;84.79
57668;BME280;43499;52.366;12.912;2022-07-22T04:47:51;101448.25;;;18.78;85.16
57668;BME280;43499;52.366;12.912;2022-07-22T04:48:52;101449.53;;;18.85;85.08
57668;BME280;43499;52.366;12.912;2022-07-22T04:49:54;101444.19;;;18.85;85.23
57668;BME280;43499;52.366;12.912;2022-07-22T04:50:58;101440.44;;;18.96;84.81
57668;BME280;43499;52.366;12.912;2022-07-22T04:52:00;101442.63;;;19.04;83.98
57668;BME280;43499;52.366;12.912;2022-07-22T04:53:00;101446.00;;;19.16;83.59
57668;BME280;43499;52.366;12.912;2022-07-22T04:54:03;101444.44;;;19.20;83.68
57668;BME280;43499;52.366;12.912;2022-07-22T04:55:05;101451.25;;;19.15;83.44
57668;BME280;43499;52.366;12.912;2022-07-22T04:56:08;101448.31;;;19.10;83.62
57668;BME280;43499;52.366;12.912;2022-07-22T04:57:09;101447.31;;;19.08;83.70
57668;BME280;43499;52.366;12.912;2022-07-22T04:58:11;101448.88;;;19.19;83.20
57668;BME280;43499;52.366;12.912;2022-07-22T04:59:12;101446.47;;;19.24;83.17
57668;BME280;43499;52.366;12.912;2022-07-22T05:00:15;101449.66;;;19.33;82.51
57668;BME280;43499;52.366;12.912;2022-07-22T05:01:16;101444.38;;;19.35;82.73
57668;BME280;43499;52.366;12.912;2022-07-22T05:02:18;101442.97;;;19.25;82.54
57668;BME280;43499;52.366;12.912;2022-07-22T05:03:19;101445.78;;;19.28;82.68
57668;BME280;43499;52.366;12.912;2022-07-22T05:04:21;101446.19;;;19.19;82.98
57668;BME280;43499;52.366;12.912;2022-07-22T05:05:22;101447.84;;;19.17;83.16
57668;BME280;43499;52.366;12.912;2022-07-22T05:06:24;101442.22;;;19.27;83.02
57668;BME280;43499;52.366;12.912;2022-07-22T05:07:25;101440.44;;;19.28;82.67
57668;BME280;43499;52.366;12.912;2022-07-22T05:08:27;101448.56;;;19.30;82.44
57668;BME280;43499;52.366;12.912;2022-07-22T05:09:28;101446.72;;;19.29;82.62
57668;BME280;43499;52.366;12.912;2022-07-22T05:10:30;101439.88;;;19.34;82.49
57668;BME280;43499;52.366;12.912;2022-07-22T05:11:33;101446.16;;;19.34;82.38
57668;BME280;43499;52.366;12.912;2022-07-22T05:12:35;101452.75;;;19.41;82.34
57668;BME280;43499;52.366;12.912;2022-07-22T05:13:36;101448.81;;;19.34;82.35
57668;BME280;43499;52.366;12.912;2022-07-22T05:14:38;101452.81;;;19.42;81.95
57668;BME280;43499;52.366;12.912;2022-07-22T05:15:39;101446.66;;;19.43;81.82
57668;BME280;43499;52.366;12.912;2022-07-22T05:16:41;101443.13;;;19.28;82.52
57668;BME280;43499;52.366;12.912;2022-07-22T05:17:42;101446.97;;;19.33;82.47
57668;BME280;43499;52.366;12.912;2022-07-22T05:18:44;101448.25;;;19.40;82.32